Flight Track Log - Related Links

Times and Time Zones

All times are in EDT time to prevent confusion due to time zone crossing. See the N528QS flight status page for this flight to view local times or setup timezone preferences in your user account.

Time Position Orientation Groundspeed Altitude Reporting Facility
EDT Latitude Longitude Course Direction KTS MPH feet Rate Location/Type
Wed 12:24:45 AM 47.5547 -122.3264 328° Northwest 207 238 1,200  Level Seattle Center
Wed 12:25:16 AM 47.5839 -122.3531 328° Northwest 221 254 2,500 2,674 Climbing Seattle Center
Wed 12:26:17 AM 47.6317 -122.4286 313° West 270 311 5,300 2,853 Climbing Seattle Center
Wed 12:27:39 AM 47.7253 -122.4339 358° North 284 327 9,300 2,392 Climbing Seattle Center
Wed 12:28:40 AM 47.8014 -122.3708 29° Northeast 313 360 11,000 1,869 Climbing Seattle Center
Wed 12:29:41 AM 47.8847 -122.3050 28° Northeast 368 423 13,100 2,115 Climbing Seattle Center
Wed 12:30:42 AM 47.9761 -122.2319 28° Northeast 378 435 15,300 2,182 Climbing Seattle Center
Wed 12:31:42 AM 48.0719 -122.1553 28° Northeast 392 451 17,500 2,380 Climbing Seattle Center
Wed 12:32:43 AM 48.1878 -122.0567 30° Northeast 401 461 20,100 2,262 Climbing Seattle Center
Wed 12:33:44 AM 48.2717 -121.9378 43° Northeast 413 475 22,100 1,869 Climbing Seattle Center
Wed 12:34:45 AM 48.3600 -121.8164 42° Northeast 432 497 23,900 1,770 Climbing Seattle Center
Wed 12:35:46 AM 48.4500 -121.6911 43° Northeast 442 509 25,700 1,736 Climbing Seattle Center
Wed 12:36:46 AM 48.5419 -121.5628 43° Northeast 453 521 27,400 1,488 Climbing Seattle Center
Wed 12:37:47 AM 48.6378 -121.4303 42° Northeast 468 539 28,700 1,328 Climbing Seattle Center
Wed 12:38:48 AM 48.7356 -121.2942 43° Northeast 481 554 30,100 1,630 Climbing Seattle Center
Wed 12:40:51 AM 48.9333 -120.9833 46° Northeast 480 552 33,700 1,574 Climbing Vancouver Center
Wed 12:41:51 AM 49.0333 -120.8500 41° Northeast 480 552 34,900 1,200 Climbing Vancouver Center
Wed 12:42:51 AM 49.1333 -120.7167 41° Northeast 490 564 36,100 1,150 Climbing Vancouver Center
Wed 12:43:51 AM 49.2333 -120.5500 47° Northeast 490 564 37,200 950 Climbing Vancouver Center
Wed 12:44:51 AM 49.3333 -120.4500 33° Northeast 490 564 38,000 400 Climbing Vancouver Center
Wed 12:45:51 AM 49.4667 -120.3833 18° North 480 552 38,000 450 Level Vancouver Center
Wed 12:46:51 AM 49.6000 -120.3500 North 480 552 38,900 1,000 Climbing Vancouver Center
Wed 12:47:51 AM 49.7333 -120.3167 North 480 552 40,000 550 Climbing Vancouver Center
Wed 12:48:51 AM 49.8500 -120.2833 10° North 480 552 40,000  Level Vancouver Center
Wed 12:49:51 AM 50.0000 -120.2333 12° North 480 552 40,000  Level Vancouver Center
Wed 12:50:51 AM 50.1167 -120.2000 10° North 490 564 40,000  Level Vancouver Center
Wed 12:51:51 AM 50.2667 -120.1333 16° North 490 564 40,000  Level Vancouver Center
Wed 12:52:51 AM 50.3833 -120.1000 10° North 480 552 40,000  Level Vancouver Center
Wed 12:53:51 AM 50.5167 -120.0667 North 490 564 40,000  Level Vancouver Center
Wed 12:54:51 AM 50.6667 -120.0333 North 490 564 40,000  Level Vancouver Center
Wed 12:55:51 AM 50.7833 -120.0000 10° North 490 564 40,000  Level Vancouver Center
Wed 12:56:51 AM 50.9167 -119.9500 13° North 490 564 40,000  Level Vancouver Center
Wed 12:57:51 AM 51.0667 -119.9167 North 490 564 40,000  Level Vancouver Center
Wed 12:58:51 AM 51.1667 -119.8500 23° Northeast 490 564 40,000  Level Vancouver Center
Wed 12:59:51 AM 51.3167 -119.8167 North 480 552 40,000  Level Vancouver Center
Wed 01:00:51 AM 51.4333 -119.7833 10° North 480 552 40,000  Level Vancouver Center
Wed 01:01:51 AM 51.5833 -119.7333 12° North 490 564 40,000  Level Vancouver Center
Wed 01:02:51 AM 51.7167 -119.7000 North 480 552 40,000  Level Vancouver Center
Wed 01:03:51 AM 51.8333 -119.6667 10° North 480 552 40,000  Level Vancouver Center
Wed 01:04:58 AM 51.9667 -119.6500 North 480 552 40,000  Level Edmonton Center
Wed 01:05:58 AM 52.1000 -119.6167 North 480 552 40,000  Level Edmonton Center
Wed 01:06:58 AM 52.2333 -119.5833 North 480 552 40,000  Level Edmonton Center
Wed 01:07:58 AM 52.3667 -119.5500 North 480 552 40,000  Level Edmonton Center
Wed 01:08:58 AM 52.5000 -119.5167 North 480 552 40,000  Level Edmonton Center
Wed 01:09:58 AM 52.6500 -119.4500 15° North 480 552 40,000  Level Edmonton Center
Wed 01:10:58 AM 52.7667 -119.4000 15° North 480 552 40,000  Level Edmonton Center
Wed 01:11:58 AM 52.9000 -119.3667 North 480 552 40,000  Level Edmonton Center
Wed 01:12:58 AM 53.0167 -119.3167 14° North 480 552 40,000  Level Edmonton Center
Wed 01:13:58 AM 53.1667 -119.2667 11° North 480 552 40,000  Level Edmonton Center
Wed 01:14:58 AM 53.3000 -119.2167 13° North 480 552 40,000  Level Edmonton Center
Wed 01:15:58 AM 53.4333 -119.1833 North 480 552 40,000  Level Edmonton Center
Wed 01:16:58 AM 53.5667 -119.1333 13° North 470 541 40,000  Level Edmonton Center
Wed 01:17:58 AM 53.6833 -119.1000 10° North 470 541 40,000  Level Edmonton Center
Wed 01:18:58 AM 53.8167 -119.0333 16° North 470 541 40,000  Level Edmonton Center
Wed 01:19:58 AM 53.9500 -118.9833 12° North 470 541 40,000  Level Edmonton Center
Wed 01:20:58 AM 54.0833 -118.9500 North 470 541 40,000  Level Edmonton Center
Wed 01:21:58 AM 54.2167 -118.9000 12° North 470 541 40,000  Level Edmonton Center
Wed 01:22:58 AM 54.3333 -118.8667 North 470 541 40,000  Level Edmonton Center
Wed 01:23:58 AM 54.4667 -118.8167 12° North 470 541 40,000  Level Edmonton Center
Wed 01:24:58 AM 54.6000 -118.7500 16° North 470 541 40,000  Level Edmonton Center
Wed 01:25:58 AM 54.7333 -118.7000 12° North 470 541 40,000  Level Edmonton Center
Wed 01:26:58 AM 54.8667 -118.6667 North 470 541 40,000  Level Edmonton Center
Wed 01:27:58 AM 54.9833 -118.6167 14° North 470 541 40,000  Level Edmonton Center
Wed 01:28:58 AM 55.1333 -118.5667 11° North 470 541 40,000  Level Edmonton Center
Wed 01:29:58 AM 55.2500 -118.5333 North 470 541 40,000  Level Edmonton Center
Wed 01:30:58 AM 55.3833 -118.4500 20° North 480 552 40,000  Level Edmonton Center
Wed 01:31:58 AM 55.5000 -118.4000 14° North 480 552 40,000  Level Edmonton Center
Wed 01:32:58 AM 55.6500 -118.3667 North 480 552 40,000  Level Edmonton Center
Wed 01:33:58 AM 55.7833 -118.3167 12° North 470 541 40,000  Level Edmonton Center
Wed 01:34:58 AM 55.9000 -118.2500 18° North 470 541 40,000  Level Edmonton Center
Wed 01:35:58 AM 56.0333 -118.2000 12° North 480 552 40,000  Level Edmonton Center
Wed 01:36:58 AM 56.1500 -118.1500 13° North 470 541 40,000  Level Edmonton Center
Wed 01:37:58 AM 56.2833 -118.1000 12° North 460 529 40,000  Level Edmonton Center
Wed 01:38:58 AM 56.4167 -118.0500 12° North 460 529 40,000  Level Edmonton Center
Wed 01:39:58 AM 56.5500 -118.0000 12° North 470 541 40,000  Level Edmonton Center
Wed 01:40:58 AM 56.6667 -117.9500 13° North 460 529 40,000  Level Edmonton Center
Wed 01:41:58 AM 56.8000 -117.9167 North 470 541 40,000  Level Edmonton Center
Wed 01:42:58 AM 56.9333 -117.8667 12° North 470 541 40,000  Level Edmonton Center
Wed 01:43:58 AM 57.0500 -117.7833 21° North 470 541 40,000  Level Edmonton Center
Wed 01:44:58 AM 57.1833 -117.7333 11° North 470 541 40,000  Level Edmonton Center
Wed 01:45:58 AM 57.3333 -117.6833 10° North 470 541 40,000  Level Edmonton Center
Wed 01:46:58 AM 57.4500 -117.6333 13° North 470 541 40,000  Level Edmonton Center
Wed 01:47:58 AM 57.5833 -117.5500 19° North 470 541 40,000  Level Edmonton Center
Wed 01:48:58 AM 57.7000 -117.5000 13° North 470 541 40,000  Level Edmonton Center
Wed 01:49:58 AM 57.8333 -117.4500 11° North 470 541 40,000  Level Edmonton Center
Wed 01:50:58 AM 57.9500 -117.4000 13° North 470 541 40,000  Level Edmonton Center
Wed 01:51:58 AM 58.0833 -117.3333 15° North 470 541 40,000  Level Edmonton Center
Wed 01:52:58 AM 58.2167 -117.3000 North 470 541 40,000  Level Edmonton Center
Wed 01:53:58 AM 58.3500 -117.2333 15° North 470 541 40,000  Level Edmonton Center
Wed 01:54:58 AM 58.4833 -117.1500 18° North 480 552 40,000  Level Edmonton Center
Wed 01:55:58 AM 58.6000 -117.1000 13° North 480 552 40,000  Level Edmonton Center
Wed 01:56:58 AM 58.7500 -117.0167 16° North 480 552 40,000  Level Edmonton Center
Wed 01:57:58 AM 58.8833 -116.9667 11° North 480 552 40,000  Level Edmonton Center
Wed 01:58:58 AM 59.0000 -116.8667 24° Northeast 480 552 40,000  Level Edmonton Center
Wed 01:59:58 AM 59.1500 -116.8167 10° North 480 552 40,000  Level Edmonton Center
Wed 02:00:58 AM 59.2667 -116.7667 12° North 480 552 40,000  Level Edmonton Center
Wed 02:01:58 AM 59.4000 -116.6833 18° North 480 552 40,000  Level Edmonton Center
Wed 02:02:58 AM 59.5333 -116.5833 21° North 480 552 40,000  Level Edmonton Center
Wed 02:03:58 AM 59.6500 -116.5333 12° North 480 552 40,000  Level Edmonton Center
Wed 02:04:58 AM 59.7833 -116.4667 14° North 480 552 40,000  Level Edmonton Center
Wed 02:05:58 AM 59.9167 -116.3833 17° North 480 552 40,000  Level Edmonton Center
Wed 02:06:58 AM 60.0500 -116.3167 14° North 480 552 40,000  Level Edmonton Center
Wed 02:07:58 AM 60.1833 -116.2333 17° North 480 552 40,000  Level Edmonton Center
Wed 02:08:58 AM 60.3000 -116.1667 16° North 480 552 40,000  Level Edmonton Center
Wed 02:09:58 AM 60.4500 -116.0833 15° North 480 552 40,000  Level Edmonton Center
Wed 02:10:58 AM 60.5667 -116.0167 16° North 480 552 40,000  Level Edmonton Center
Wed 02:11:58 AM 60.7000 -115.9167 20° North 480 552 40,000  Level Edmonton Center
Wed 02:12:58 AM 60.8333 -115.8667 10° North 480 552 40,000  Level Edmonton Center
Wed 02:13:58 AM 60.9500 -115.7667 23° Northeast 480 552 40,000  Level Edmonton Center
Wed 02:14:58 AM 61.0833 -115.6667 20° North 480 552 40,000  Level Edmonton Center
Wed 02:15:58 AM 61.2000 -115.5667 22° Northeast 480 552 40,000  Level Edmonton Center
Wed 02:16:58 AM 61.3167 -115.4667 22° Northeast 480 552 40,000  Level Edmonton Center
Wed 02:17:58 AM 61.4500 -115.3667 20° North 480 552 40,000  Level Edmonton Center
Wed 02:18:58 AM 61.5833 -115.2667 20° North 480 552 40,000  Level Edmonton Center
Wed 02:19:58 AM 61.7000 -115.1500 25° Northeast 480 552 40,000  Level Edmonton Center
Wed 02:20:58 AM 61.8167 -115.0500 22° Northeast 480 552 40,000  Level Edmonton Center
Wed 02:21:58 AM 61.9667 -114.9167 23° Northeast 470 541 40,000  Level Edmonton Center
Wed 02:22:58 AM 62.0667 -114.8000 29° Northeast 470 541 40,000  Level Edmonton Center
Wed 02:23:58 AM 62.2000 -114.7000 19° North 470 541 40,000  Level Edmonton Center
Wed 02:24:58 AM 62.3333 -114.5833 22° Northeast 480 552 40,000  Level Edmonton Center
Wed 02:25:58 AM 62.4500 -114.4833 22° Northeast 470 541 40,000  Level Edmonton Center
Wed 02:27:11 AM 62.5833 -114.3000 32° Northeast 470 541 40,000  Level Edmonton Center
Wed 02:28:11 AM 62.7000 -114.1500 31° Northeast 470 541 40,000  Level Edmonton Center
Wed 02:29:11 AM 62.8167 -113.9667 36° Northeast 470 541 40,000  Level Edmonton Center
Wed 02:30:11 AM 62.9167 -113.8000 37° Northeast 470 541 40,000  Level Edmonton Center
Wed 02:31:11 AM 63.0167 -113.6500 34° Northeast 470 541 40,000  Level Edmonton Center
Wed 02:32:11 AM 63.1333 -113.4500 38° Northeast 470 541 40,000  Level Edmonton Center
Wed 02:33:11 AM 63.2500 -113.3000 30° Northeast 470 541 40,000  Level Edmonton Center
Wed 02:34:11 AM 63.3667 -113.1000 38° Northeast 470 541 40,000  Level Edmonton Center
Wed 02:35:11 AM 63.4667 -112.9500 34° Northeast 480 552 40,000  Level Edmonton Center
Wed 02:36:11 AM 63.5833 -112.7833 32° Northeast 470 541 40,000  Level Edmonton Center
Wed 02:37:11 AM 63.6833 -112.5833 42° Northeast 470 541 40,000  Level Edmonton Center
Wed 02:38:11 AM 63.7833 -112.4167 36° Northeast 470 541 40,000  Level Edmonton Center
Wed 02:39:11 AM 63.9000 -112.2500 32° Northeast 470 541 40,000  Level Edmonton Center
Wed 02:40:11 AM 64.0167 -112.0833 32° Northeast 470 541 40,000  Level Edmonton Center
Wed 02:41:11 AM 64.1000 -111.8667 49° Northeast 470 541 40,000  Level Edmonton Center
Wed 02:42:11 AM 64.2167 -111.7000 32° Northeast 470 541 40,000  Level Edmonton Center
Wed 02:43:11 AM 64.3333 -111.5333 32° Northeast 470 541 40,000  Level Edmonton Center
Wed 02:44:11 AM 64.4333 -111.3667 36° Northeast 470 541 40,000  Level Edmonton Center
Wed 02:45:11 AM 64.5500 -111.1500 39° Northeast 470 541 40,000  Level Edmonton Center
Wed 02:46:11 AM 64.6333 -110.9667 43° Northeast 470 541 40,000  Level Edmonton Center
Wed 02:47:11 AM 64.7500 -110.7500 38° Northeast 470 541 40,000  Level Edmonton Center
Wed 02:48:11 AM 64.8500 -110.5833 35° Northeast 470 541 40,000  Level Edmonton Center
Wed 02:49:11 AM 64.9500 -110.4000 38° Northeast 470 541 40,000  Level Edmonton Center
Wed 02:50:11 AM 65.0500 -110.2167 38° Northeast 460 529 40,000  Level Edmonton Center
Wed 02:51:12 AM 65.1667 -110.0333 33° Northeast 460 529 40,000 50 Level Edmonton Center
Wed 02:52:12 AM 65.2667 -109.8500 37° Northeast 460 529 40,100 504 Climbing Edmonton Center
Wed 02:53:11 AM 65.3667 -109.6333 42° Northeast 460 529 41,000 454 Climbing Edmonton Center
Wed 02:54:11 AM 65.4500 -109.4333 45° Northeast 460 529 41,000  Level Edmonton Center
Wed 02:55:12 AM 65.5833 -109.2500 30° Northeast 470 541 41,000  Level Edmonton Center
Wed 02:56:12 AM 65.6667 -109.0167 49° Northeast 470 541 41,000  Level Edmonton Center
Wed 02:58:00 AM 65.8752 -108.7456 28° Northeast  Level Estimated
Wed 03:05:00 AM 66.6812 -107.6483 28° Northeast  Level Estimated
Wed 03:06:00 AM 66.7957 -107.4857 29° Northeast  Level Estimated
Wed 03:07:00 AM 66.9100 -107.3215 29° Northeast  Level Estimated
Wed 03:08:00 AM 67.0242 -107.1559 30° Northeast  Level Estimated
Wed 03:09:00 AM 67.1382 -106.9886 30° Northeast  Level Estimated
Wed 03:10:00 AM 67.2520 -106.8198 30° Northeast  Level Estimated
Wed 03:11:00 AM 67.3656 -106.6494 30° Northeast  Level Estimated
Wed 03:12:00 AM 67.4790 -106.4773 30° Northeast  Level Estimated
Wed 03:13:00 AM 67.5923 -106.3036 30° Northeast  Level Estimated
Wed 03:14:00 AM 67.7054 -106.1282 30° Northeast  Level Estimated
Wed 03:15:00 AM 67.8183 -105.9512 31° Northeast  Level Estimated
Wed 03:16:00 AM 67.9310 -105.7724 31° Northeast  Level Estimated
Wed 03:17:00 AM 68.0435 -105.5919 31° Northeast  Level Estimated
Wed 03:18:00 AM 68.1558 -105.4096 31° Northeast  Level Estimated
Wed 03:19:00 AM 68.2679 -105.2255 31° Northeast  Level Estimated
Wed 03:20:00 AM 68.3798 -105.0396 31° Northeast  Level Estimated
Wed 03:21:00 AM 68.4914 -104.8518 32° Northeast  Level Estimated
Wed 03:22:00 AM 68.6029 -104.6622 32° Northeast  Level Estimated
Wed 03:23:00 AM 68.7142 -104.4707 32° Northeast  Level Estimated
Wed 03:24:00 AM 68.8252 -104.2773 32° Northeast  Level Estimated
Wed 03:25:00 AM 68.9360 -104.0819 32° Northeast  Level Estimated
Wed 03:26:00 AM 69.0466 -103.8846 33° Northeast  Level Estimated
Wed 03:27:00 AM 69.1570 -103.6853 33° Northeast  Level Estimated
Wed 03:28:00 AM 69.2671 -103.4839 33° Northeast  Level Estimated
Wed 03:29:00 AM 69.3770 -103.2805 33° Northeast  Level Estimated
Wed 03:30:00 AM 69.4866 -103.0751 33° Northeast  Level Estimated
Wed 03:31:00 AM 69.5961 -102.8675 33° Northeast  Level Estimated
Wed 03:32:00 AM 69.7052 -102.6577 34° Northeast  Level Estimated
Wed 03:33:00 AM 69.8141 -102.4458 34° Northeast  Level Estimated
Wed 03:34:00 AM 69.9228 -102.2317 34° Northeast  Level Estimated
Wed 03:35:00 AM 70.0312 -102.0154 34° Northeast  Level Estimated
Wed 03:36:00 AM 70.1393 -101.7968 34° Northeast  Level Estimated
Wed 03:37:00 AM 70.2471 -101.5759 35° Northeast  Level Estimated
Wed 03:38:00 AM 70.3547 -101.3527 35° Northeast  Level Estimated
Wed 03:39:00 AM 70.4620 -101.1271 35° Northeast  Level Estimated
Wed 03:40:00 AM 70.5690 -100.8992 35° Northeast  Level Estimated
Wed 03:41:00 AM 70.6758 -100.6688 36° Northeast  Level Estimated
Wed 03:42:00 AM 70.7822 -100.4360 36° Northeast  Level Estimated
Wed 03:43:00 AM 70.8883 -100.2006 36° Northeast  Level Estimated
Wed 03:44:00 AM 70.9942 -99.9628 36° Northeast  Level Estimated
Wed 03:45:00 AM 71.0997 -99.7223 36° Northeast  Level Estimated
Wed 03:46:00 AM 71.2049 -99.4793 37° Northeast  Level Estimated
Wed 03:47:00 AM 71.3098 -99.2337 37° Northeast  Level Estimated
Wed 03:48:00 AM 71.4144 -98.9854 37° Northeast  Level Estimated
Wed 03:49:00 AM 71.5187 -98.7343 37° Northeast  Level Estimated
Wed 03:50:00 AM 71.6226 -98.4806 38° Northeast  Level Estimated
Wed 03:51:00 AM 71.7262 -98.2240 38° Northeast  Level Estimated
Wed 03:52:00 AM 71.8294 -97.9646 38° Northeast  Level Estimated
Wed 03:53:00 AM 71.9323 -97.7024 38° Northeast  Level Estimated
Wed 03:54:00 AM 72.0348 -97.4373 39° Northeast  Level Estimated
Wed 03:55:00 AM 72.1369 -97.1692 39° Northeast  Level Estimated
Wed 03:56:00 AM 72.2387 -96.8982 39° Northeast  Level Estimated
Wed 03:57:00 AM 72.3401 -96.6241 39° Northeast  Level Estimated
Wed 03:58:00 AM 72.4412 -96.3470 40° Northeast  Level Estimated
Wed 03:59:00 AM 72.5418 -96.0668 40° Northeast  Level Estimated
Wed 04:00:00 AM 72.6421 -95.7834 40° Northeast  Level Estimated
Wed 04:01:00 AM 72.7419 -95.4969 40° Northeast  Level Estimated
Wed 04:02:00 AM 72.8413 -95.2071 41° Northeast  Level Estimated
Wed 04:03:00 AM 72.9403 -94.9140 41° Northeast  Level Estimated
Wed 04:04:00 AM 73.0389 -94.6177 41° Northeast  Level Estimated
Wed 04:05:00 AM 73.1371 -94.3180 41° Northeast  Level Estimated
Wed 04:06:00 AM 73.2348 -94.0149 42° Northeast  Level Estimated
Wed 04:07:00 AM 73.3320 -93.7084 42° Northeast  Level Estimated
Wed 04:08:00 AM 73.4288 -93.3983 42° Northeast  Level Estimated
Wed 04:09:00 AM 73.5252 -93.0847 43° Northeast  Level Estimated
Wed 04:10:00 AM 73.6211 -92.7676 43° Northeast  Level Estimated
Wed 04:11:00 AM 73.7165 -92.4468 43° Northeast  Level Estimated
Wed 04:12:00 AM 73.8113 -92.1224 44° Northeast  Level Estimated
Wed 04:13:00 AM 73.9057 -91.7943 44° Northeast  Level Estimated
Wed 04:14:00 AM 73.9996 -91.4623 44° Northeast  Level Estimated
Wed 04:15:00 AM 74.0930 -91.1266 44° Northeast  Level Estimated
Wed 04:16:00 AM 74.1859 -90.7871 45° Northeast  Level Estimated
Wed 04:17:00 AM 74.2782 -90.4436 45° Northeast  Level Estimated
Wed 04:18:00 AM 74.3700 -90.0962 45° Northeast  Level Estimated
Wed 04:19:00 AM 74.4612 -89.7448 46° Northeast  Level Estimated
Wed 04:20:00 AM 74.5519 -89.3894 46° Northeast  Level Estimated
Wed 04:21:00 AM 74.6420 -89.0299 46° Northeast  Level Estimated
Wed 04:22:00 AM 74.7315 -88.6663 47° Northeast  Level Estimated
Wed 04:23:00 AM 74.8204 -88.2984 47° Northeast  Level Estimated
Wed 04:24:00 AM 74.9087 -87.9264 48° Northeast  Level Estimated
Wed 04:25:00 AM 74.9964 -87.5501 48° Northeast  Level Estimated
Wed 04:26:00 AM 75.0835 -87.1695 48° Northeast  Level Estimated
Wed 04:27:00 AM 75.1699 -86.7846 49° Northeast  Level Estimated
Wed 04:28:00 AM 75.2557 -86.3953 49° Northeast  Level Estimated
Wed 04:29:00 AM 75.3409 -86.0015 49° Northeast  Level Estimated
Wed 04:30:00 AM 75.4253 -85.6032 50° Northeast  Level Estimated
Wed 04:31:00 AM 75.5091 -85.2004 50° Northeast  Level Estimated
Wed 04:32:00 AM 75.5922 -84.7931 51° Northeast  Level Estimated
Wed 04:33:00 AM 75.6746 -84.3811 51° Northeast  Level Estimated
Wed 04:34:00 AM 75.7562 -83.9645 51° Northeast  Level Estimated
Wed 04:35:00 AM 75.8372 -83.5433 52° Northeast  Level Estimated
Wed 04:36:00 AM 75.9173 -83.1173 52° Northeast  Level Estimated
Wed 04:37:00 AM 75.9968 -82.6865 53° Northeast  Level Estimated
Wed 04:38:00 AM 76.0754 -82.2510 53° Northeast  Level Estimated
Wed 04:39:00 AM 76.1533 -81.8106 53° Northeast  Level Estimated
Wed 04:40:00 AM 76.2304 -81.3653 54° Northeast  Level Estimated
Wed 04:41:00 AM 76.3067 -80.9152 54° Northeast  Level Estimated
Wed 04:42:00 AM 76.3821 -80.4602 55° Northeast  Level Estimated
Wed 04:43:00 AM 76.4568 -80.0002 55° Northeast  Level Estimated
Wed 04:44:00 AM 76.5305 -79.5352 56° Northeast  Level Estimated
Wed 04:45:00 AM 76.6034 -79.0653 56° Northeast  Level Estimated
Wed 04:46:00 AM 76.6755 -78.5903 56° Northeast  Level Estimated
Wed 04:47:00 AM 76.7466 -78.1103 57° Northeast  Level Estimated
Wed 04:48:00 AM 76.8168 -77.6252 57° Northeast  Level Estimated
Wed 04:49:00 AM 76.8861 -77.1350 58° Northeast  Level Estimated
Wed 04:50:00 AM 76.9545 -76.6398 58° Northeast  Level Estimated
Wed 04:51:00 AM 77.0219 -76.1395 59° Northeast  Level Estimated
Wed 04:52:00 AM 77.0884 -75.6341 59° Northeast  Level Estimated
Wed 04:53:00 AM 77.1539 -75.1236 60° Northeast  Level Estimated
Wed 04:54:00 AM 77.2183 -74.6080 60° Northeast  Level Estimated
Wed 04:55:00 AM 77.2818 -74.0873 61° Northeast  Level Estimated
Wed 04:56:00 AM 77.3443 -73.5614 61° Northeast  Level Estimated
Wed 04:57:00 AM 77.4056 -73.0305 62° Northeast  Level Estimated
Wed 04:58:00 AM 77.4660 -72.4946 62° Northeast  Level Estimated
Wed 04:59:00 AM 77.5253 -71.9536 63° Northeast  Level Estimated
Wed 05:00:00 AM 77.5834 -71.4075 63° Northeast  Level Estimated
Wed 05:01:00 AM 77.6405 -70.8564 64° Northeast  Level Estimated
Wed 05:02:00 AM 77.6965 -70.3003 64° Northeast  Level Estimated
Wed 05:03:00 AM 77.7513 -69.7393 65° Northeast  Level Estimated
Wed 05:04:00 AM 77.8050 -69.1734 66° East  Level Estimated
Wed 05:05:00 AM 77.8575 -68.6026 66° East  Level Estimated
Wed 05:06:00 AM 77.9088 -68.0270 67° East  Level Estimated
Wed 05:07:00 AM 77.9590 -67.4466 67° East  Level Estimated
Wed 05:08:00 AM 78.0079 -66.8614 68° East  Level Estimated
Wed 05:09:00 AM 78.0556 -66.2716 68° East  Level Estimated
Wed 05:10:00 AM 78.1021 -65.6772 69° East  Level Estimated
Wed 05:11:00 AM 78.1473 -65.0783 70° East  Level Estimated
Wed 05:12:00 AM 78.1913 -64.4749 70° East  Level Estimated
Wed 05:13:00 AM 78.2339 -63.8671 71° East  Level Estimated
Wed 05:14:00 AM 78.2753 -63.2551 71° East  Level Estimated
Wed 05:15:00 AM 78.3153 -62.6388 72° East  Level Estimated
Wed 05:16:00 AM 78.3541 -62.0184 73° East  Level Estimated
Wed 05:17:00 AM 78.3915 -61.3941 73° East  Level Estimated
Wed 05:18:00 AM 78.4275 -60.7658 74° East  Level Estimated
Wed 05:19:00 AM 78.4622 -60.1337 74° East  Level Estimated
Wed 05:20:00 AM 78.4955 -59.4979 75° East  Level Estimated
Wed 05:21:00 AM 78.5275 -58.8585 76° East  Level Estimated
Wed 05:22:00 AM 78.5580 -58.2157 76° East  Level Estimated
Wed 05:23:00 AM 78.5871 -57.5696 77° East  Level Estimated
Wed 05:24:00 AM 78.6148 -56.9203 78° East  Level Estimated
Wed 05:25:00 AM 78.6411 -56.2680 78° East  Level Estimated
Wed 05:26:00 AM 78.6659 -55.6128 79° East  Level Estimated
Wed 05:27:00 AM 78.6893 -54.9548 79° East  Level Estimated
Wed 05:28:00 AM 78.7112 -54.2942 80° East  Level Estimated
Wed 05:29:00 AM 78.7317 -53.6311 81° East  Level Estimated
Wed 05:30:00 AM 78.7506 -52.9658 81° East  Level Estimated
Wed 05:31:00 AM 78.7681 -52.2983 82° East  Level Estimated
Wed 05:32:00 AM 78.7841 -51.6289 83° East  Level Estimated
Wed 05:33:00 AM 78.7986 -50.9576 83° East  Level Estimated
Wed 05:34:00 AM 78.8116 -50.2848 84° East  Level Estimated
Wed 05:35:00 AM 78.8231 -49.6104 85° East  Level Estimated
Wed 05:36:00 AM 78.8331 -48.9348 85° East  Level Estimated
Wed 05:37:00 AM 78.8416 -48.2581 86° East  Level Estimated
Wed 05:38:00 AM 78.8485 -47.5805 87° East  Level Estimated
Wed 05:39:00 AM 78.8539 -46.9021 87° East  Level Estimated
Wed 05:40:00 AM 78.8578 -46.2231 88° East  Level Estimated
Wed 05:41:00 AM 78.8602 -45.5438 89° East  Level Estimated
Wed 05:42:00 AM 78.8611 -44.8643 89° East  Level Estimated
Wed 05:43:00 AM 78.8604 -44.1848 90° East  Level Estimated
Wed 05:44:00 AM 78.8582 -43.5055 91° East  Level Estimated
Wed 05:45:00 AM 78.8544 -42.8265 91° East  Level Estimated
Wed 05:46:00 AM 78.8492 -42.1480 92° East  Level Estimated
Wed 05:47:00 AM 78.8424 -41.4703 93° East  Level Estimated
Wed 05:48:00 AM 78.8341 -40.7935 93° East  Level Estimated
Wed 05:49:00 AM 78.8243 -40.1178 94° East  Level Estimated
Wed 05:50:00 AM 78.8129 -39.4433 95° East  Level Estimated
Wed 05:51:00 AM 78.8001 -38.7702 95° East  Level Estimated
Wed 05:52:00 AM 78.7858 -38.0988 96° East  Level Estimated
Wed 05:53:00 AM 78.7699 -37.4292 97° East  Level Estimated
Wed 05:54:00 AM 78.7526 -36.7615 97° East  Level Estimated
Wed 05:55:00 AM 78.7338 -36.0959 98° East  Level Estimated
Wed 05:56:00 AM 78.7135 -35.4326 99° East  Level Estimated
Wed 05:57:00 AM 78.6917 -34.7717 99° East  Level Estimated
Wed 05:58:00 AM 78.6685 -34.1135 100° East  Level Estimated
Wed 05:59:00 AM 78.6438 -33.4579 101° East  Level Estimated
Wed 06:00:00 AM 78.6177 -32.8053 101° East  Level Estimated
Wed 06:01:00 AM 78.5902 -32.1557 102° East  Level Estimated
Wed 06:02:00 AM 78.5612 -31.5092 102° East  Level Estimated
Wed 06:03:00 AM 78.5308 -30.8660 103° East  Level Estimated
Wed 06:04:00 AM 78.4990 -30.2263 104° East  Level Estimated
Wed 06:05:00 AM 78.4659 -29.5901 104° East  Level Estimated
Wed 06:06:00 AM 78.4313 -28.9576 105° East  Level Estimated
Wed 06:07:00 AM 78.3954 -28.3289 106° East  Level Estimated
Wed 06:08:00 AM 78.3582 -27.7041 106° East  Level Estimated
Wed 06:09:00 AM 78.3196 -27.0833 107° East  Level Estimated
Wed 06:10:00 AM 78.2797 -26.4666 107° East  Level Estimated
Wed 06:11:00 AM 78.2384 -25.8541 108° East  Level Estimated
Wed 06:12:00 AM 78.1959 -25.2458 109° East  Level Estimated
Wed 06:13:00 AM 78.1521 -24.6420 109° East  Level Estimated
Wed 06:14:00 AM 78.1070 -24.0426 110° East  Level Estimated
Wed 06:15:00 AM 78.0607 -23.4477 110° East  Level Estimated
Wed 06:16:00 AM 78.0131 -22.8574 111° Southeast  Level Estimated
Wed 06:17:00 AM 77.9643 -22.2717 112° Southeast  Level Estimated
Wed 06:18:00 AM 77.9143 -21.6908 112° Southeast  Level Estimated
Wed 06:19:00 AM 77.8631 -21.1147 113° Southeast  Level Estimated
Wed 06:20:00 AM 77.8107 -20.5433 113° Southeast  Level Estimated
Wed 06:21:00 AM 77.7571 -19.9769 114° Southeast  Level Estimated
Wed 06:22:00 AM 77.7024 -19.4153 114° Southeast  Level Estimated
Wed 06:23:00 AM 77.6466 -18.8588 115° Southeast  Level Estimated
Wed 06:24:00 AM 77.5896 -18.3071 115° Southeast  Level Estimated
Wed 06:25:00 AM 77.5316 -17.7605 116° Southeast  Level Estimated
Wed 06:26:00 AM 77.4724 -17.2190 117° Southeast  Level Estimated
Wed 06:27:00 AM 77.4122 -16.6825 117° Southeast  Level Estimated
Wed 06:28:00 AM 77.3509 -16.1510 118° Southeast  Level Estimated
Wed 06:29:00 AM 77.2886 -15.6247 118° Southeast  Level Estimated
Wed 06:30:00 AM 77.2252 -15.1034 119° Southeast  Level Estimated
Wed 06:31:00 AM 77.1608 -14.5872 119° Southeast  Level Estimated
Wed 06:32:00 AM 77.0955 -14.0762 120° Southeast  Level Estimated
Wed 06:33:00 AM 77.0291 -13.5702 120° Southeast  Level Estimated
Wed 06:34:00 AM 76.9618 -13.0694 121° Southeast  Level Estimated
Wed 06:35:00 AM 76.8935 -12.5736 121° Southeast  Level Estimated
Wed 06:36:00 AM 76.8243 -12.0829 122° Southeast  Level Estimated
Wed 06:37:00 AM 76.7542 -11.5973 122° Southeast  Level Estimated
Wed 06:38:00 AM 76.6832 -11.1167 123° Southeast  Level Estimated
Wed 06:39:00 AM 76.6112 -10.6412 123° Southeast  Level Estimated
Wed 06:40:00 AM 76.5384 -10.1707 123° Southeast  Level Estimated
Wed 06:41:00 AM 76.4647 -9.7052 124° Southeast  Level Estimated
Wed 06:42:00 AM 76.3902 -9.2447 124° Southeast  Level Estimated
Wed 06:43:00 AM 76.3148 -8.7891 125° Southeast  Level Estimated
Wed 06:44:00 AM 76.2386 -8.3385 125° Southeast  Level Estimated
Wed 06:45:00 AM 76.1616 -7.8927 126° Southeast  Level Estimated
Wed 06:46:00 AM 76.0838 -7.4518 126° Southeast  Level Estimated
Wed 06:47:00 AM 76.0053 -7.0158 127° Southeast  Level Estimated
Wed 06:48:00 AM 75.9259 -6.5845 127° Southeast  Level Estimated
Wed 06:49:00 AM 75.8458 -6.1580 127° Southeast  Level Estimated
Wed 06:50:00 AM 75.7650 -5.7362 128° Southeast  Level Estimated
Wed 06:51:00 AM 75.6834 -5.3191 128° Southeast  Level Estimated
Wed 06:52:00 AM 75.6011 -4.9067 129° Southeast  Level Estimated
Wed 06:53:00 AM 75.5181 -4.4988 129° Southeast  Level Estimated
Wed 06:54:00 AM 75.4343 -4.0955 129° Southeast  Level Estimated
Wed 06:55:00 AM 75.3500 -3.6968 130° Southeast  Level Estimated
Wed 06:56:00 AM 75.2649 -3.3025 130° Southeast  Level Estimated
Wed 06:57:00 AM 75.1792 -2.9127 131° Southeast  Level Estimated
Wed 06:58:00 AM 75.0928 -2.5273 131° Southeast  Level Estimated
Wed 06:59:00 AM 75.0058 -2.1463 131° Southeast  Level Estimated
Wed 07:00:00 AM 74.9182 -1.7695 132° Southeast  Level Estimated
Wed 07:01:00 AM 74.8299 -1.3970 132° Southeast  Level Estimated
Wed 07:02:00 AM 74.7411 -1.0288 132° Southeast  Level Estimated
Wed 07:03:00 AM 74.6516 -0.6647 133° Southeast  Level Estimated
Wed 07:04:00 AM 74.5616 -0.3047 133° Southeast  Level Estimated
Wed 07:05:00 AM 74.4710 0.0511 133° Southeast  Level Estimated
Wed 07:06:00 AM 74.3798 0.4029 134° Southeast  Level Estimated
Wed 07:07:00 AM 74.2881 0.7508 134° Southeast  Level Estimated
Wed 07:08:00 AM 74.1958 1.0947 134° Southeast  Level Estimated
Wed 07:09:00 AM 74.1030 1.4346 135° Southeast  Level Estimated
Wed 07:10:00 AM 74.0097 1.7708 135° Southeast  Level Estimated
Wed 07:11:00 AM 73.9158 2.1031 135° Southeast  Level Estimated
Wed 07:12:00 AM 73.8215 2.4316 136° Southeast  Level Estimated
Wed 07:13:00 AM 73.7266 2.7564 136° Southeast  Level Estimated
Wed 07:14:00 AM 73.6313 3.0776 136° Southeast  Level Estimated
Wed 07:15:00 AM 73.5355 3.3951 137° Southeast  Level Estimated
Wed 07:16:00 AM 73.4392 3.7091 137° Southeast  Level Estimated
Wed 07:17:00 AM 73.3424 4.0195 137° Southeast  Level Estimated
Wed 07:18:00 AM 73.2452 4.3264 138° Southeast  Level Estimated
Wed 07:19:00 AM 73.1476 4.6299 138° Southeast  Level Estimated
Wed 07:20:00 AM 73.0495 4.9300 138° Southeast  Level Estimated
Wed 07:21:00 AM 72.9509 5.2267 138° Southeast  Level Estimated
Wed 07:22:00 AM 72.8520 5.5201 139° Southeast  Level Estimated
Wed 07:23:00 AM 72.7526 5.8102 139° Southeast  Level Estimated
Wed 07:24:00 AM 72.6528 6.0971 139° Southeast  Level Estimated
Wed 07:25:00 AM 72.5526 6.3808 140° Southeast  Level Estimated
Wed 07:26:00 AM 72.4520 6.6613 140° Southeast  Level Estimated
Wed 07:27:00 AM 72.3510 6.9388 140° Southeast  Level Estimated
Wed 07:28:00 AM 72.2497 7.2131 140° Southeast  Level Estimated
Wed 07:29:00 AM 72.1479 7.4845 141° Southeast  Level Estimated
Wed 07:30:00 AM 72.0458 7.7529 141° Southeast  Level Estimated
Wed 07:31:00 AM 71.9433 8.0183 141° Southeast  Level Estimated
Wed 07:32:00 AM 71.8405 8.2809 141° Southeast  Level Estimated
Wed 07:33:00 AM 71.7373 8.5405 142° Southeast  Level Estimated
Wed 07:34:00 AM 71.6337 8.7974 142° Southeast  Level Estimated
Wed 07:35:00 AM 71.5299 9.0515 142° Southeast  Level Estimated
Wed 07:36:00 AM 71.4257 9.3028 142° Southeast  Level Estimated
Wed 07:37:00 AM 71.3211 9.5514 143° Southeast  Level Estimated
Wed 07:38:00 AM 71.2162 9.7973 143° Southeast  Level Estimated
Wed 07:39:00 AM 71.1111 10.0406 143° Southeast  Level Estimated
Wed 07:40:00 AM 71.0055 10.2813 143° Southeast  Level Estimated
Wed 07:41:00 AM 70.8997 10.5195 144° Southeast  Level Estimated
Wed 07:42:00 AM 70.7936 10.7551 144° Southeast  Level Estimated
Wed 07:43:00 AM 70.6872 10.9882 144° Southeast  Level Estimated
Wed 07:44:00 AM 70.5805 11.2188 144° Southeast  Level Estimated
Wed 07:45:00 AM 70.4735 11.4470 144° Southeast  Level Estimated
Wed 07:46:00 AM 70.3663 11.6729 145° Southeast  Level Estimated
Wed 07:47:00 AM 70.2587 11.8963 145° Southeast  Level Estimated
Wed 07:48:00 AM 70.1509 12.1175 145° Southeast  Level Estimated
Wed 07:49:00 AM 70.0428 12.3363 145° Southeast  Level Estimated
Wed 07:50:00 AM 69.9344 12.5529 146° Southeast  Level Estimated
Wed 07:51:00 AM 69.8258 12.7672 146° Southeast  Level Estimated
Wed 07:52:00 AM 69.7169 12.9794 146° Southeast  Level Estimated
Wed 07:53:00 AM 69.6078 13.1893 146° Southeast  Level Estimated
Wed 07:54:00 AM 69.4984 13.3971 146° Southeast  Level Estimated
Wed 07:55:00 AM 69.3888 13.6028 147° Southeast  Level Estimated
Wed 07:56:00 AM 69.2790 13.8065 147° Southeast  Level Estimated
Wed 07:57:00 AM 69.1689 14.0080 147° Southeast  Level Estimated
Wed 07:58:00 AM 69.0585 14.2076 147° Southeast  Level Estimated
Wed 07:59:00 AM 68.9480 14.4051 147° Southeast  Level Estimated
Wed 08:00:00 AM 68.8372 14.6007 147° Southeast  Level Estimated
Wed 08:01:00 AM 68.7262 14.7943 148° Southeast  Level Estimated
Wed 08:02:00 AM 68.6149 14.9860 148° Southeast  Level Estimated
Wed 08:03:00 AM 68.5035 15.1758 148° Southeast  Level Estimated
Wed 08:04:00 AM 68.3918 15.3638 148° Southeast  Level Estimated
Wed 08:05:00 AM 68.2799 15.5499 148° Southeast  Level Estimated
Wed 08:06:00 AM 68.1679 15.7341 149° Southeast  Level Estimated
Wed 08:07:00 AM 68.0556 15.9166 149° Southeast  Level Estimated
Wed 08:08:00 AM 67.9431 16.0973 149° Southeast  Level Estimated
Wed 08:09:00 AM 67.8304 16.2763 149° Southeast  Level Estimated
Wed 08:10:00 AM 67.7176 16.4536 149° Southeast  Level Estimated
Wed 08:11:00 AM 67.6045 16.6292 149° Southeast  Level Estimated
Wed 08:12:00 AM 67.4912 16.8030 150° Southeast  Level Estimated
Wed 08:13:00 AM 67.3778 16.9753 150° Southeast  Level Estimated
Wed 08:14:00 AM 67.2642 17.1459 150° Southeast  Level Estimated
Wed 08:15:00 AM 67.1504 17.3148 150° Southeast  Level Estimated
Wed 08:16:00 AM 67.0365 17.4823 150° Southeast  Level Estimated
Wed 08:17:00 AM 66.9223 17.6481 150° Southeast  Level Estimated
Wed 08:18:00 AM 66.8080 17.8124 150° Southeast  Level Estimated
Wed 08:19:00 AM 66.6935 17.9752 151° Southeast  Level Estimated
Wed 08:20:00 AM 66.5789 18.1364 151° Southeast  Level Estimated
Wed 08:21:00 AM 66.4641 18.2962 151° Southeast  Level Estimated
Wed 08:22:00 AM 66.3491 18.4545 151° Southeast  Level Estimated
Wed 08:23:00 AM 66.2339 18.6114 151° Southeast  Level Estimated
Wed 08:24:00 AM 66.1187 18.7669 151° Southeast  Level Estimated
Wed 08:25:00 AM 66.0032 18.9209 151° Southeast  Level Estimated
Wed 08:26:00 AM 65.8876 19.0735 152° Southeast  Level Estimated
Wed 08:27:00 AM 65.7719 19.2248 152° Southeast  Level Estimated
Wed 08:28:00 AM 65.6560 19.3748 152° Southeast  Level Estimated
Wed 08:29:00 AM 65.5399 19.5233 152° Southeast  Level Estimated
Wed 08:30:00 AM 65.4237 19.6706 152° Southeast  Level Estimated
Wed 08:31:00 AM 65.3074 19.8166 152° Southeast  Level Estimated
Wed 08:32:00 AM 65.1909 19.9613 152° Southeast  Level Estimated
Wed 08:33:00 AM 65.0743 20.1047 153° Southeast  Level Estimated
Wed 08:34:00 AM 64.9576 20.2469 153° Southeast  Level Estimated
Wed 08:35:00 AM 64.8407 20.3878 153° Southeast  Level Estimated
Wed 08:36:00 AM 64.7237 20.5275 153° Southeast  Level Estimated
Wed 08:37:00 AM 64.6066 20.6660 153° Southeast  Level Estimated
Wed 08:38:00 AM 64.4893 20.8033 153° Southeast  Level Estimated
Wed 08:39:00 AM 64.3719 20.9395 153° Southeast  Level Estimated
Wed 08:40:00 AM 64.2544 21.0745 153° Southeast  Level Estimated
Wed 08:41:00 AM 64.1367 21.2083 154° Southeast  Level Estimated
Wed 08:42:00 AM 64.0190 21.3410 154° Southeast  Level Estimated
Wed 08:43:00 AM 63.9011 21.4727 154° Southeast  Level Estimated
Wed 08:44:00 AM 63.7831 21.6031 154° Southeast  Level Estimated
Wed 08:45:00 AM 63.6649 21.7326 154° Southeast  Level Estimated
Wed 08:46:00 AM 63.5467 21.8609 154° Southeast  Level Estimated
Wed 08:47:00 AM 63.4283 21.9882 154° Southeast  Level Estimated
Wed 08:48:00 AM 63.3099 22.1144 154° Southeast  Level Estimated
Wed 08:49:00 AM 63.1913 22.2396 155° Southeast  Level Estimated
Wed 08:50:00 AM 63.0726 22.3638 155° Southeast  Level Estimated
Wed 08:51:00 AM 62.9538 22.4869 155° Southeast  Level Estimated
Wed 08:52:00 AM 62.8349 22.6091 155° Southeast  Level Estimated
Wed 08:53:00 AM 62.7160 22.7303 155° Southeast  Level Estimated
Wed 08:54:00 AM 62.5969 22.8505 155° Southeast  Level Estimated
Wed 08:55:00 AM 62.4776 22.9697 155° Southeast  Level Estimated
Wed 08:56:00 AM 62.3583 23.0880 155° Southeast  Level Estimated
Wed 08:57:00 AM 62.2389 23.2054 155° Southeast  Level Estimated
Wed 08:58:00 AM 62.1194 23.3218 155° Southeast  Level Estimated
Wed 08:59:00 AM 61.9998 23.4374 156° South  Level Estimated
Wed 09:00:00 AM 61.8801 23.5520 156° South  Level Estimated
Wed 09:01:00 AM 61.7603 23.6657 156° South  Level Estimated
Wed 09:02:00 AM 61.6404 23.7785 156° South  Level Estimated
Wed 09:03:00 AM 61.5205 23.8905 156° South  Level Estimated
Wed 09:04:00 AM 61.4004 24.0016 156° South  Level Estimated
Wed 09:05:00 AM 61.2802 24.1119 156° South  Level Estimated
Wed 09:06:00 AM 61.1600 24.2213 156° South  Level Estimated
Wed 09:07:00 AM 61.0396 24.3299 156° South  Level Estimated
Wed 09:08:00 AM 60.9192 24.4377 156° South  Level Estimated
Wed 09:09:00 AM 60.7987 24.5446 157° South  Level Estimated
Wed 09:10:00 AM 60.6781 24.6508 157° South  Level Estimated
Wed 09:11:00 AM 60.5574 24.7561 157° South  Level Estimated
Wed 09:12:00 AM 60.4367 24.8607 157° South  Level Estimated
Wed 09:13:00 AM 60.3172 24.9633 157° South  Level Estimated
Wed 09:14:00 AM 60.3172 24.9633 37° Northeast  Level Estimated
Wed 09:15:00 AM 60.3172 24.9633 37° Northeast  Level Estimated
Wed 09:16:00 AM 60.3172 24.9633 37° Northeast  Level Estimated
Wed 09:17:00 AM 60.3172 24.9633 37° Northeast  Level Estimated
Wed 09:18:00 AM 60.3172 24.9633 37° Northeast  Level Estimated
Wed 09:19:00 AM 60.3172 24.9633 37° Northeast  Level Estimated
Wed 09:20:00 AM 60.3172 24.9633 37° Northeast  Level Estimated
Wed 09:21:00 AM 60.3172 24.9633 37° Northeast  Level Estimated
Wed 09:22:00 AM 60.3172 24.9633 37° Northeast  Level Estimated
Wed 09:23:00 AM 60.3172 24.9633 37° Northeast  Level Estimated
Wed 09:24:00 AM 60.3172 24.9633 37° Northeast  Level Estimated
Wed 09:25:00 AM 60.3172 24.9633 37° Northeast  Level Estimated
Wed 09:26:00 AM 60.3172 24.9633 37° Northeast  Level Estimated
Wed 09:27:00 AM 60.3172 24.9633 37° Northeast  Level Estimated
Wed 09:28:00 AM 60.3172 24.9633 37° Northeast  Level Estimated
Wed 09:29:00 AM 60.3172 24.9633 37° Northeast  Level Estimated
Wed 09:30:00 AM 60.3172 24.9633 37° Northeast  Level Estimated
Wed 09:31:00 AM 60.3172 24.9633 37° Northeast  Level Estimated
Wed 09:32:00 AM 60.3172 24.9633 37° Northeast  Level Estimated
Wed 09:33:00 AM 60.3172 24.9633 37° Northeast  Level Estimated
Wed 09:34:00 AM 60.3172 24.9633 37° Northeast  Level Estimated
Wed 09:35:00 AM 60.3172 24.9633 37° Northeast  Level Estimated
Wed 09:36:00 AM 60.3172 24.9633 37° Northeast  Level Estimated
Wed 09:37:00 AM 60.3172 24.9633 37° Northeast  Level Estimated
Wed 09:38:00 AM 60.3172 24.9633 37° Northeast  Level Estimated

Login

Don't have an account? Register now (free) for customized features, flight alerts, and more!